sensor_id;sensor_type;location;lat;lon;timestamp;P1;durP1;ratioP1;P2;durP2;ratioP2
35743;SDS011;21867;52.012;4.324;2022-11-20T00:01:52;9.53;;;8.63;;
35743;SDS011;21867;52.012;4.324;2022-11-20T00:04:20;9.97;;;8.97;;
35743;SDS011;21867;52.012;4.324;2022-11-20T00:07:02;11.47;;;9.53;;
35743;SDS011;21867;52.012;4.324;2022-11-20T00:10:05;12.03;;;9.90;;
35743;SDS011;21867;52.012;4.324;2022-11-20T00:12:33;10.03;;;9.03;;
35743;SDS011;21867;52.012;4.324;2022-11-20T00:15:00;9.83;;;8.83;;
35743;SDS011;21867;52.012;4.324;2022-11-20T00:17:28;10.13;;;9.13;;
35743;SDS011;21867;52.012;4.324;2022-11-20T00:19:55;9.97;;;8.37;;
35743;SDS011;21867;52.012;4.324;2022-11-20T00:22:22;10.33;;;8.63;;
35743;SDS011;21867;52.012;4.324;2022-11-20T00:24:55;11.03;;;9.80;;
35743;SDS011;21867;52.012;4.324;2022-11-20T00:27:24;10.17;;;8.40;;
35743;SDS011;21867;52.012;4.324;2022-11-20T00:29:52;10.00;;;8.90;;
35743;SDS011;21867;52.012;4.324;2022-11-20T00:32:19;10.53;;;8.23;;
35743;SDS011;21867;52.012;4.324;2022-11-20T00:34:47;9.77;;;8.77;;
35743;SDS011;21867;52.012;4.324;2022-11-20T00:40:30;13.83;;;9.47;;
35743;SDS011;21867;52.012;4.324;2022-11-20T00:42:58;10.10;;;9.13;;
35743;SDS011;21867;52.012;4.324;2022-11-20T00:45:26;9.60;;;8.70;;
35743;SDS011;21867;52.012;4.324;2022-11-20T00:47:53;10.87;;;9.10;;
35743;SDS011;21867;52.012;4.324;2022-11-20T00:50:20;10.27;;;9.13;;
35743;SDS011;21867;52.012;4.324;2022-11-20T00:52:47;10.23;;;9.23;;
35743;SDS011;21867;52.012;4.324;2022-11-20T00:55:15;9.90;;;8.90;;
35743;SDS011;21867;52.012;4.324;2022-11-20T00:57:42;10.80;;;9.70;;
35743;SDS011;21867;52.012;4.324;2022-11-20T01:00:12;10.53;;;9.13;;
35743;SDS011;21867;52.012;4.324;2022-11-20T01:02:39;9.97;;;8.97;;
35743;SDS011;21867;52.012;4.324;2022-11-20T01:05:25;10.13;;;9.17;;
35743;SDS011;21867;52.012;4.324;2022-11-20T01:11:07;10.23;;;9.13;;
35743;SDS011;21867;52.012;4.324;2022-11-20T01:13:35;10.83;;;9.47;;
35743;SDS011;21867;52.012;4.324;2022-11-20T01:16:04;9.53;;;8.63;;
35743;SDS011;21867;52.012;4.324;2022-11-20T01:18:31;12.80;;;9.53;;
35743;SDS011;21867;52.012;4.324;2022-11-20T01:21:02;10.70;;;9.67;;
35743;SDS011;21867;52.012;4.324;2022-11-20T01:23:30;12.57;;;9.30;;
35743;SDS011;21867;52.012;4.324;2022-11-20T01:26:03;10.23;;;9.03;;
35743;SDS011;21867;52.012;4.324;2022-11-20T01:28:31;10.20;;;9.20;;
35743;SDS011;21867;52.012;4.324;2022-11-20T01:30:59;10.73;;;8.63;;
35743;SDS011;21867;52.012;4.324;2022-11-20T01:33:28;9.80;;;8.80;;
35743;SDS011;21867;52.012;4.324;2022-11-20T01:38:50;10.03;;;8.87;;
35743;SDS011;21867;52.012;4.324;2022-11-20T01:41:17;10.43;;;9.10;;
35743;SDS011;21867;52.012;4.324;2022-11-20T01:43:45;9.87;;;8.97;;
35743;SDS011;21867;52.012;4.324;2022-11-20T01:46:14;10.60;;;9.50;;
35743;SDS011;21867;52.012;4.324;2022-11-20T01:48:44;10.30;;;8.80;;
35743;SDS011;21867;52.012;4.324;2022-11-20T01:51:14;10.57;;;9.57;;
35743;SDS011;21867;52.012;4.324;2022-11-20T01:53:44;9.80;;;8.80;;
35743;SDS011;21867;52.012;4.324;2022-11-20T01:56:12;10.47;;;9.37;;
35743;SDS011;21867;52.012;4.324;2022-11-20T01:58:42;12.90;;;9.13;;
35743;SDS011;21867;52.012;4.324;2022-11-20T02:01:11;10.10;;;9.00;;
35743;SDS011;21867;52.012;4.324;2022-11-20T02:03:59;10.20;;;9.03;;
35743;SDS011;21867;52.012;4.324;2022-11-20T02:06:38;9.37;;;8.47;;
35743;SDS011;21867;52.012;4.324;2022-11-20T02:09:07;9.23;;;8.33;;
35743;SDS011;21867;52.012;4.324;2022-11-20T02:11:35;9.90;;;8.90;;
35743;SDS011;21867;52.012;4.324;2022-11-20T02:14:02;10.13;;;9.13;;
35743;SDS011;21867;52.012;4.324;2022-11-20T02:16:30;10.70;;;9.60;;
35743;SDS011;21867;52.012;4.324;2022-11-20T02:19:00;10.30;;;9.00;;
35743;SDS011;21867;52.012;4.324;2022-11-20T02:21:30;9.93;;;8.93;;
35743;SDS011;21867;52.012;4.324;2022-11-20T02:24:05;9.67;;;8.73;;
35743;SDS011;21867;52.012;4.324;2022-11-20T02:26:33;9.27;;;8.33;;
35743;SDS011;21867;52.012;4.324;2022-11-20T02:29:02;9.40;;;8.50;;
35743;SDS011;21867;52.012;4.324;2022-11-20T02:31:33;10.07;;;9.07;;
35743;SDS011;21867;52.012;4.324;2022-11-20T02:37:00;9.23;;;8.33;;
35743;SDS011;21867;52.012;4.324;2022-11-20T02:39:44;9.23;;;8.33;;
35743;SDS011;21867;52.012;4.324;2022-11-20T02:42:13;9.73;;;8.80;;
35743;SDS011;21867;52.012;4.324;2022-11-20T02:44:40;9.03;;;8.13;;
35743;SDS011;21867;52.012;4.324;2022-11-20T02:47:07;9.43;;;8.50;;
35743;SDS011;21867;52.012;4.324;2022-11-20T02:49:35;9.87;;;8.43;;
35743;SDS011;21867;52.012;4.324;2022-11-20T02:52:02;9.97;;;8.97;;
35743;SDS011;21867;52.012;4.324;2022-11-20T02:54:29;9.53;;;8.63;;
35743;SDS011;21867;52.012;4.324;2022-11-20T02:56:58;9.67;;;8.67;;
35743;SDS011;21867;52.012;4.324;2022-11-20T02:59:25;9.63;;;8.73;;
35743;SDS011;21867;52.012;4.324;2022-11-20T03:01:52;10.07;;;9.07;;
35743;SDS011;21867;52.012;4.324;2022-11-20T03:04:19;9.43;;;8.53;;
35743;SDS011;21867;52.012;4.324;2022-11-20T03:06:47;10.27;;;8.87;;
35743;SDS011;21867;52.012;4.324;2022-11-20T03:09:17;9.57;;;8.60;;
35743;SDS011;21867;52.012;4.324;2022-11-20T03:11:45;11.20;;;9.90;;
35743;SDS011;21867;52.012;4.324;2022-11-20T03:14:14;10.63;;;9.53;;
35743;SDS011;21867;52.012;4.324;2022-11-20T03:16:41;9.63;;;8.73;;
35743;SDS011;21867;52.012;4.324;2022-11-20T03:19:08;9.60;;;8.70;;
35743;SDS011;21867;52.012;4.324;2022-11-20T03:21:38;10.87;;;9.77;;
35743;SDS011;21867;52.012;4.324;2022-11-20T03:24:05;11.17;;;9.97;;
35743;SDS011;21867;52.012;4.324;2022-11-20T03:26:33;10.93;;;9.57;;
35743;SDS011;21867;52.012;4.324;2022-11-20T03:29:01;10.37;;;9.00;;
35743;SDS011;21867;52.012;4.324;2022-11-20T03:31:30;9.77;;;8.77;;
35743;SDS011;21867;52.012;4.324;2022-11-20T03:36:56;10.43;;;9.43;;
35743;SDS011;21867;52.012;4.324;2022-11-20T03:39:23;9.80;;;8.80;;
35743;SDS011;21867;52.012;4.324;2022-11-20T03:41:51;10.63;;;9.30;;
35743;SDS011;21867;52.012;4.324;2022-11-20T03:44:20;10.23;;;9.27;;
35743;SDS011;21867;52.012;4.324;2022-11-20T03:46:49;9.87;;;9.00;;
35743;SDS011;21867;52.012;4.324;2022-11-20T03:49:16;10.80;;;9.70;;
35743;SDS011;21867;52.012;4.324;2022-11-20T03:51:44;10.03;;;9.13;;
35743;SDS011;21867;52.012;4.324;2022-11-20T03:54:11;13.43;;;10.23;;
35743;SDS011;21867;52.012;4.324;2022-11-20T03:56:38;11.17;;;9.73;;
35743;SDS011;21867;52.012;4.324;2022-11-20T03:59:05;11.13;;;9.97;;
35743;SDS011;21867;52.012;4.324;2022-11-20T04:01:34;11.73;;;9.33;;
35743;SDS011;21867;52.012;4.324;2022-11-20T04:04:03;10.23;;;9.20;;
35743;SDS011;21867;52.012;4.324;2022-11-20T04:06:33;11.53;;;10.33;;
35743;SDS011;21867;52.012;4.324;2022-11-20T04:15:11;12.20;;;10.77;;
35743;SDS011;21867;52.012;4.324;2022-11-20T04:17:38;10.70;;;9.60;;
35743;SDS011;21867;52.012;4.324;2022-11-20T04:20:08;9.97;;;8.97;;
35743;SDS011;21867;52.012;4.324;2022-11-20T04:22:35;10.20;;;9.10;;
35743;SDS011;21867;52.012;4.324;2022-11-20T04:25:02;10.53;;;9.43;;
35743;SDS011;21867;52.012;4.324;2022-11-20T04:30:06;10.77;;;9.67;;
35743;SDS011;21867;52.012;4.324;2022-11-20T04:32:33;10.57;;;9.57;;
35743;SDS011;21867;52.012;4.324;2022-11-20T04:35:00;10.20;;;9.20;;
35743;SDS011;21867;52.012;4.324;2022-11-20T04:37:29;11.30;;;9.37;;
35743;SDS011;21867;52.012;4.324;2022-11-20T04:39:56;10.60;;;9.50;;
35743;SDS011;21867;52.012;4.324;2022-11-20T04:42:24;12.33;;;11.03;;
35743;SDS011;21867;52.012;4.324;2022-11-20T04:47:43;11.40;;;10.23;;
35743;SDS011;21867;52.012;4.324;2022-11-20T04:50:10;12.10;;;9.97;;
35743;SDS011;21867;52.012;4.324;2022-11-20T04:52:39;10.60;;;9.50;;
35743;SDS011;21867;52.012;4.324;2022-11-20T04:55:07;10.47;;;9.40;;
35743;SDS011;21867;52.012;4.324;2022-11-20T04:57:49;11.03;;;9.93;;
35743;SDS011;21867;52.012;4.324;2022-11-20T05:00:16;10.90;;;9.87;;
35743;SDS011;21867;52.012;4.324;2022-11-20T05:02:44;10.63;;;9.53;;
35743;SDS011;21867;52.012;4.324;2022-11-20T05:05:11;10.73;;;9.27;;
35743;SDS011;21867;52.012;4.324;2022-11-20T05:07:40;10.23;;;8.70;;
35743;SDS011;21867;52.012;4.324;2022-11-20T05:10:07;11.35;;;10.20;;
35743;SDS011;21867;52.012;4.324;2022-11-20T05:15:11;10.50;;;9.40;;
35743;SDS011;21867;52.012;4.324;2022-11-20T05:17:38;9.93;;;9.03;;
35743;SDS011;21867;52.012;4.324;2022-11-20T05:20:06;10.30;;;9.30;;
35743;SDS011;21867;52.012;4.324;2022-11-20T05:22:34;10.47;;;9.47;;
35743;SDS011;21867;52.012;4.324;2022-11-20T05:25:03;11.03;;;9.93;;
35743;SDS011;21867;52.012;4.324;2022-11-20T05:27:30;10.63;;;9.47;;
35743;SDS011;21867;52.012;4.324;2022-11-20T05:30:07;10.27;;;9.27;;
35743;SDS011;21867;52.012;4.324;2022-11-20T05:32:40;10.10;;;9.10;;
35743;SDS011;21867;52.012;4.324;2022-11-20T05:35:08;11.27;;;10.10;;
35743;SDS011;21867;52.012;4.324;2022-11-20T05:37:35;10.90;;;9.80;;
35743;SDS011;21867;52.012;4.324;2022-11-20T05:40:04;12.73;;;9.77;;
35743;SDS011;21867;52.012;4.324;2022-11-20T05:42:44;10.70;;;9.70;;
35743;SDS011;21867;52.012;4.324;2022-11-20T05:45:11;9.93;;;9.03;;
35743;SDS011;21867;52.012;4.324;2022-11-20T05:47:39;11.40;;;10.40;;
35743;SDS011;21867;52.012;4.324;2022-11-20T05:50:06;10.80;;;9.70;;
35743;SDS011;21867;52.012;4.324;2022-11-20T05:52:33;10.30;;;9.27;;
35743;SDS011;21867;52.012;4.324;2022-11-20T05:55:01;9.93;;;8.67;;
35743;SDS011;21867;52.012;4.324;2022-11-20T05:57:46;11.03;;;9.50;;
35743;SDS011;21867;52.012;4.324;2022-11-20T06:00:14;10.63;;;9.53;;
35743;SDS011;21867;52.012;4.324;2022-11-20T06:02:41;10.53;;;9.53;;
35743;SDS011;21867;52.012;4.324;2022-11-20T06:05:09;10.50;;;9.50;;
35743;SDS011;21867;52.012;4.324;2022-11-20T06:07:36;11.70;;;10.50;;
35743;SDS011;21867;52.012;4.324;2022-11-20T06:13:39;10.93;;;9.87;;
35743;SDS011;21867;52.012;4.324;2022-11-20T06:16:08;13.43;;;10.33;;
35743;SDS011;21867;52.012;4.324;2022-11-20T06:18:36;10.57;;;9.57;;
35743;SDS011;21867;52.012;4.324;2022-11-20T06:21:04;10.67;;;9.40;;
35743;SDS011;21867;52.012;4.324;2022-11-20T06:23:32;10.80;;;9.80;;
35743;SDS011;21867;52.012;4.324;2022-11-20T06:26:01;11.37;;;10.17;;
35743;SDS011;21867;52.012;4.324;2022-11-20T06:28:33;12.47;;;11.00;;
35743;SDS011;21867;52.012;4.324;2022-11-20T06:31:01;11.47;;;10.33;;
35743;SDS011;21867;52.012;4.324;2022-11-20T06:33:29;10.73;;;9.63;;
35743;SDS011;21867;52.012;4.324;2022-11-20T06:35:56;12.17;;;10.97;;
35743;SDS011;21867;52.012;4.324;2022-11-20T06:42:22;11.97;;;10.63;;
35743;SDS011;21867;52.012;4.324;2022-11-20T06:44:49;10.33;;;9.30;;
35743;SDS011;21867;52.012;4.324;2022-11-20T06:47:18;17.53;;;11.07;;
35743;SDS011;21867;52.012;4.324;2022-11-20T06:49:45;13.10;;;9.40;;
35743;SDS011;21867;52.012;4.324;2022-11-20T06:52:13;12.77;;;10.00;;
35743;SDS011;21867;52.012;4.324;2022-11-20T06:54:40;12.13;;;10.87;;
35743;SDS011;21867;52.012;4.324;2022-11-20T06:59:36;11.57;;;10.30;;
35743;SDS011;21867;52.012;4.324;2022-11-20T07:02:04;11.13;;;10.03;;
35743;SDS011;21867;52.012;4.324;2022-11-20T07:04:32;11.70;;;10.60;;
35743;SDS011;21867;52.012;4.324;2022-11-20T07:07:00;11.97;;;10.70;;
35743;SDS011;21867;52.012;4.324;2022-11-20T07:09:27;11.90;;;10.70;;
35743;SDS011;21867;52.012;4.324;2022-11-20T07:11:54;10.87;;;9.77;;
35743;SDS011;21867;52.012;4.324;2022-11-20T07:17:32;11.77;;;9.80;;
35743;SDS011;21867;52.012;4.324;2022-11-20T07:20:00;12.43;;;11.17;;
35743;SDS011;21867;52.012;4.324;2022-11-20T07:22:28;11.97;;;10.73;;
35743;SDS011;21867;52.012;4.324;2022-11-20T07:24:55;12.67;;;10.60;;
35743;SDS011;21867;52.012;4.324;2022-11-20T07:29:52;11.60;;;10.40;;
35743;SDS011;21867;52.012;4.324;2022-11-20T07:32:20;11.90;;;10.63;;
35743;SDS011;21867;52.012;4.324;2022-11-20T07:34:48;12.70;;;11.50;;
35743;SDS011;21867;52.012;4.324;2022-11-20T07:37:17;12.07;;;10.80;;
35743;SDS011;21867;52.012;4.324;2022-11-20T07:39:44;16.30;;;11.33;;
35743;SDS011;21867;52.012;4.324;2022-11-20T07:42:30;11.63;;;10.53;;
35743;SDS011;21867;52.012;4.324;2022-11-20T07:44:57;13.63;;;10.53;;
35743;SDS011;21867;52.012;4.324;2022-11-20T07:47:25;11.53;;;10.43;;
35743;SDS011;21867;52.012;4.324;2022-11-20T07:49:52;12.53;;;11.23;;
35743;SDS011;21867;52.012;4.324;2022-11-20T07:52:30;11.93;;;10.03;;
35743;SDS011;21867;52.012;4.324;2022-11-20T07:55:10;11.10;;;10.00;;
35743;SDS011;21867;52.012;4.324;2022-11-20T07:57:37;12.47;;;11.23;;
35743;SDS011;21867;52.012;4.324;2022-11-20T08:00:06;13.83;;;11.53;;
35743;SDS011;21867;52.012;4.324;2022-11-20T08:02:37;14.73;;;13.20;;
35743;SDS011;21867;52.012;4.324;2022-11-20T08:05:05;14.70;;;11.87;;
35743;SDS011;21867;52.012;4.324;2022-11-20T08:07:36;13.43;;;11.27;;
35743;SDS011;21867;52.012;4.324;2022-11-20T08:10:03;12.97;;;11.17;;
35743;SDS011;21867;52.012;4.324;2022-11-20T08:12:31;12.40;;;11.10;;
35743;SDS011;21867;52.012;4.324;2022-11-20T08:14:58;13.23;;;11.40;;
35743;SDS011;21867;52.012;4.324;2022-11-20T08:17:26;15.63;;;13.93;;
35743;SDS011;21867;52.012;4.324;2022-11-20T08:19:53;15.30;;;13.80;;
35743;SDS011;21867;52.012;4.324;2022-11-20T08:22:29;15.90;;;12.97;;
35743;SDS011;21867;52.012;4.324;2022-11-20T08:25:06;25.07;;;15.67;;
35743;SDS011;21867;52.012;4.324;2022-11-20T08:30:26;12.00;;;10.77;;
35743;SDS011;21867;52.012;4.324;2022-11-20T08:32:53;14.97;;;12.63;;
35743;SDS011;21867;52.012;4.324;2022-11-20T08:35:21;15.87;;;12.97;;
35743;SDS011;21867;52.012;4.324;2022-11-20T08:37:48;14.03;;;12.10;;
35743;SDS011;21867;52.012;4.324;2022-11-20T08:40:17;13.30;;;11.90;;
35743;SDS011;21867;52.012;4.324;2022-11-20T08:42:45;12.80;;;11.43;;
35743;SDS011;21867;52.012;4.324;2022-11-20T08:45:13;15.23;;;11.70;;
35743;SDS011;21867;52.012;4.324;2022-11-20T08:47:40;14.67;;;13.10;;
35743;SDS011;21867;52.012;4.324;2022-11-20T08:50:08;18.33;;;15.93;;
35743;SDS011;21867;52.012;4.324;2022-11-20T08:52:35;12.57;;;11.20;;
35743;SDS011;21867;52.012;4.324;2022-11-20T08:55:05;14.57;;;13.07;;
35743;SDS011;21867;52.012;4.324;2022-11-20T08:57:34;17.40;;;13.97;;
35743;SDS011;21867;52.012;4.324;2022-11-20T09:00:02;17.50;;;15.10;;
35743;SDS011;21867;52.012;4.324;2022-11-20T09:02:32;14.33;;;12.90;;
35743;SDS011;21867;52.012;4.324;2022-11-20T09:05:00;13.27;;;11.60;;
35743;SDS011;21867;52.012;4.324;2022-11-20T09:07:27;15.77;;;13.43;;
35743;SDS011;21867;52.012;4.324;2022-11-20T09:09:56;12.93;;;11.63;;
35743;SDS011;21867;52.012;4.324;2022-11-20T09:12:45;16.50;;;13.60;;
35743;SDS011;21867;52.012;4.324;2022-11-20T09:15:15;16.17;;;13.83;;
35743;SDS011;21867;52.012;4.324;2022-11-20T09:17:42;13.97;;;12.27;;
35743;SDS011;21867;52.012;4.324;2022-11-20T09:20:09;16.43;;;13.80;;
35743;SDS011;21867;52.012;4.324;2022-11-20T09:22:39;14.60;;;13.10;;
35743;SDS011;21867;52.012;4.324;2022-11-20T09:25:06;16.57;;;14.77;;
35743;SDS011;21867;52.012;4.324;2022-11-20T09:27:34;15.40;;;13.70;;
35743;SDS011;21867;52.012;4.324;2022-11-20T09:30:03;17.60;;;14.77;;
35743;SDS011;21867;52.012;4.324;2022-11-20T09:32:30;18.80;;;14.87;;
35743;SDS011;21867;52.012;4.324;2022-11-20T09:34:57;18.17;;;13.83;;
35743;SDS011;21867;52.012;4.324;2022-11-20T09:37:29;21.03;;;15.07;;
35743;SDS011;21867;52.012;4.324;2022-11-20T09:39:57;20.73;;;16.50;;
35743;SDS011;21867;52.012;4.324;2022-11-20T09:42:30;19.50;;;16.47;;
35743;SDS011;21867;52.012;4.324;2022-11-20T09:45:05;16.13;;;14.43;;
35743;SDS011;21867;52.012;4.324;2022-11-20T09:47:37;25.70;;;18.67;;
35743;SDS011;21867;52.012;4.324;2022-11-20T09:50:14;20.93;;;17.20;;
35743;SDS011;21867;52.012;4.324;2022-11-20T09:52:46;17.93;;;15.07;;
35743;SDS011;21867;52.012;4.324;2022-11-20T09:55:15;20.67;;;16.70;;
35743;SDS011;21867;52.012;4.324;2022-11-20T09:57:45;20.43;;;16.97;;
35743;SDS011;21867;52.012;4.324;2022-11-20T10:00:14;19.50;;;17.27;;
35743;SDS011;21867;52.012;4.324;2022-11-20T10:02:43;16.37;;;13.57;;
35743;SDS011;21867;52.012;4.324;2022-11-20T10:05:12;16.10;;;14.40;;
35743;SDS011;21867;52.012;4.324;2022-11-20T10:07:43;19.30;;;16.47;;
35743;SDS011;21867;52.012;4.324;2022-11-20T10:10:14;18.73;;;16.73;;
35743;SDS011;21867;52.012;4.324;2022-11-20T10:12:47;18.70;;;16.30;;
35743;SDS011;21867;52.012;4.324;2022-11-20T10:15:24;23.53;;;16.93;;
35743;SDS011;21867;52.012;4.324;2022-11-20T10:17:58;20.00;;;16.30;;
35743;SDS011;21867;52.012;4.324;2022-11-20T10:20:29;19.00;;;15.67;;
35743;SDS011;21867;52.012;4.324;2022-11-20T10:23:04;21.63;;;14.73;;
35743;SDS011;21867;52.012;4.324;2022-11-20T10:25:38;18.90;;;16.20;;
35743;SDS011;21867;52.012;4.324;2022-11-20T10:28:21;17.00;;;15.20;;
35743;SDS011;21867;52.012;4.324;2022-11-20T10:30:56;21.47;;;15.93;;
35743;SDS011;21867;52.012;4.324;2022-11-20T10:33:24;17.83;;;15.93;;
35743;SDS011;21867;52.012;4.324;2022-11-20T10:36:12;21.33;;;15.13;;
35743;SDS011;21867;52.012;4.324;2022-11-20T10:38:42;18.73;;;15.73;;
35743;SDS011;21867;52.012;4.324;2022-11-20T10:41:11;20.03;;;16.30;;
35743;SDS011;21867;52.012;4.324;2022-11-20T10:43:40;20.03;;;17.20;;
35743;SDS011;21867;52.012;4.324;2022-11-20T10:48:59;18.50;;;15.50;;
35743;SDS011;21867;52.012;4.324;2022-11-20T10:51:30;16.93;;;14.80;;
35743;SDS011;21867;52.012;4.324;2022-11-20T10:54:00;18.27;;;15.83;;
35743;SDS011;21867;52.012;4.324;2022-11-20T10:56:33;23.07;;;16.07;;
35743;SDS011;21867;52.012;4.324;2022-11-20T10:59:11;20.03;;;16.40;;
35743;SDS011;21867;52.012;4.324;2022-11-20T11:01:42;16.77;;;14.90;;
35743;SDS011;21867;52.012;4.324;2022-11-20T11:07:07;17.57;;;15.63;;
35743;SDS011;21867;52.012;4.324;2022-11-20T11:09:37;20.40;;;16.60;;
35743;SDS011;21867;52.012;4.324;2022-11-20T11:12:06;19.77;;;15.77;;
35743;SDS011;21867;52.012;4.324;2022-11-20T11:14:41;23.60;;;18.70;;
35743;SDS011;21867;52.012;4.324;2022-11-20T11:17:17;22.40;;;18.33;;
35743;SDS011;21867;52.012;4.324;2022-11-20T11:19:45;28.93;;;19.47;;
35743;SDS011;21867;52.012;4.324;2022-11-20T11:22:16;22.30;;;17.90;;
35743;SDS011;21867;52.012;4.324;2022-11-20T11:24:51;18.57;;;14.47;;
35743;SDS011;21867;52.012;4.324;2022-11-20T11:27:18;21.57;;;17.27;;
35743;SDS011;21867;52.012;4.324;2022-11-20T11:29:45;19.37;;;16.77;;
35743;SDS011;21867;52.012;4.324;2022-11-20T11:32:14;21.20;;;17.63;;
35743;SDS011;21867;52.012;4.324;2022-11-20T11:34:41;21.47;;;13.40;;
35743;SDS011;21867;52.012;4.324;2022-11-20T11:37:10;20.80;;;17.87;;
35743;SDS011;21867;52.012;4.324;2022-11-20T11:39:41;22.90;;;16.37;;
35743;SDS011;21867;52.012;4.324;2022-11-20T11:42:10;24.57;;;19.03;;
35743;SDS011;21867;52.012;4.324;2022-11-20T11:44:43;26.87;;;19.70;;
35743;SDS011;21867;52.012;4.324;2022-11-20T11:47:19;21.07;;;17.50;;
35743;SDS011;21867;52.012;4.324;2022-11-20T11:49:48;21.57;;;18.83;;
35743;SDS011;21867;52.012;4.324;2022-11-20T11:52:16;22.53;;;18.97;;
35743;SDS011;21867;52.012;4.324;2022-11-20T11:54:47;23.83;;;19.23;;
35743;SDS011;21867;52.012;4.324;2022-11-20T12:07:07;23.90;;;19.93;;
35743;SDS011;21867;52.012;4.324;2022-11-20T12:10:19;22.13;;;17.10;;
35743;SDS011;21867;52.012;4.324;2022-11-20T12:13:04;24.23;;;19.13;;
35743;SDS011;21867;52.012;4.324;2022-11-20T12:15:41;22.80;;;17.83;;
35743;SDS011;21867;52.012;4.324;2022-11-20T12:18:14;35.73;;;20.90;;
35743;SDS011;21867;52.012;4.324;2022-11-20T12:20:44;25.20;;;18.57;;
35743;SDS011;21867;52.012;4.324;2022-11-20T12:23:20;25.23;;;20.20;;
35743;SDS011;21867;52.012;4.324;2022-11-20T12:25:56;23.43;;;18.17;;
35743;SDS011;21867;52.012;4.324;2022-11-20T12:28:37;23.00;;;16.07;;
35743;SDS011;21867;52.012;4.324;2022-11-20T12:31:14;26.17;;;20.03;;
35743;SDS011;21867;52.012;4.324;2022-11-20T12:36:33;27.00;;;21.37;;
35743;SDS011;21867;52.012;4.324;2022-11-20T12:41:51;20.93;;;16.87;;
35743;SDS011;21867;52.012;4.324;2022-11-20T12:44:25;29.20;;;22.87;;
35743;SDS011;21867;52.012;4.324;2022-11-20T12:49:47;29.37;;;21.43;;
35743;SDS011;21867;52.012;4.324;2022-11-20T12:52:22;34.00;;;22.87;;
35743;SDS011;21867;52.012;4.324;2022-11-20T12:55:00;27.67;;;20.67;;
35743;SDS011;21867;52.012;4.324;2022-11-20T12:57:32;18.33;;;13.73;;
35743;SDS011;21867;52.012;4.324;2022-11-20T13:00:14;26.00;;;20.63;;
35743;SDS011;21867;52.012;4.324;2022-11-20T13:02:45;27.80;;;18.07;;
35743;SDS011;21867;52.012;4.324;2022-11-20T13:05:19;30.03;;;22.03;;
35743;SDS011;21867;52.012;4.324;2022-11-20T13:07:48;27.03;;;20.00;;
35743;SDS011;21867;52.012;4.324;2022-11-20T13:10:19;24.67;;;17.67;;
35743;SDS011;21867;52.012;4.324;2022-11-20T13:12:51;30.57;;;21.93;;
35743;SDS011;21867;52.012;4.324;2022-11-20T13:15:23;28.10;;;19.33;;
35743;SDS011;21867;52.012;4.324;2022-11-20T13:17:54;23.20;;;17.77;;
35743;SDS011;21867;52.012;4.324;2022-11-20T13:22:58;26.53;;;17.27;;
35743;SDS011;21867;52.012;4.324;2022-11-20T13:25:26;26.53;;;17.37;;
35743;SDS011;21867;52.012;4.324;2022-11-20T13:27:55;19.80;;;14.03;;
35743;SDS011;21867;52.012;4.324;2022-11-20T13:30:23;24.20;;;19.63;;
35743;SDS011;21867;52.012;4.324;2022-11-20T13:32:51;31.57;;;22.40;;
35743;SDS011;21867;52.012;4.324;2022-11-20T13:35:29;33.40;;;26.40;;
35743;SDS011;21867;52.012;4.324;2022-11-20T13:38:27;26.00;;;20.47;;
35743;SDS011;21867;52.012;4.324;2022-11-20T13:41:07;25.43;;;17.97;;
35743;SDS011;21867;52.012;4.324;2022-11-20T13:43:36;17.97;;;12.70;;
35743;SDS011;21867;52.012;4.324;2022-11-20T13:46:05;22.50;;;15.43;;
35743;SDS011;21867;52.012;4.324;2022-11-20T13:48:33;25.83;;;19.43;;
35743;SDS011;21867;52.012;4.324;2022-11-20T13:51:06;23.27;;;18.47;;
35743;SDS011;21867;52.012;4.324;2022-11-20T13:56:29;24.37;;;16.97;;
35743;SDS011;21867;52.012;4.324;2022-11-20T13:59:05;16.87;;;13.43;;
35743;SDS011;21867;52.012;4.324;2022-11-20T14:01:40;21.93;;;17.73;;
35743;SDS011;21867;52.012;4.324;2022-11-20T14:04:09;18.90;;;16.17;;
35743;SDS011;21867;52.012;4.324;2022-11-20T14:09:28;24.30;;;19.80;;
35743;SDS011;21867;52.012;4.324;2022-11-20T14:11:56;19.93;;;15.43;;
35743;SDS011;21867;52.012;4.324;2022-11-20T14:14:25;21.83;;;17.90;;
35743;SDS011;21867;52.012;4.324;2022-11-20T14:17:04;18.73;;;15.47;;
35743;SDS011;21867;52.012;4.324;2022-11-20T14:19:31;27.93;;;19.83;;
35743;SDS011;21867;52.012;4.324;2022-11-20T14:22:09;27.40;;;21.77;;
35743;SDS011;21867;52.012;4.324;2022-11-20T14:24:36;27.73;;;19.73;;
35743;SDS011;21867;52.012;4.324;2022-11-20T14:27:04;13.60;;;8.97;;
35743;SDS011;21867;52.012;4.324;2022-11-20T14:29:34;23.03;;;15.93;;
35743;SDS011;21867;52.012;4.324;2022-11-20T14:32:02;14.03;;;11.57;;
35743;SDS011;21867;52.012;4.324;2022-11-20T14:34:31;22.97;;;18.57;;
35743;SDS011;21867;52.012;4.324;2022-11-20T14:36:59;19.23;;;14.83;;
35743;SDS011;21867;52.012;4.324;2022-11-20T14:39:29;27.40;;;18.57;;
35743;SDS011;21867;52.012;4.324;2022-11-20T14:41:57;21.00;;;15.90;;
35743;SDS011;21867;52.012;4.324;2022-11-20T14:44:25;21.77;;;17.10;;
35743;SDS011;21867;52.012;4.324;2022-11-20T14:46:54;20.10;;;16.97;;
35743;SDS011;21867;52.012;4.324;2022-11-20T14:49:22;23.37;;;18.47;;
35743;SDS011;21867;52.012;4.324;2022-11-20T14:51:58;20.10;;;16.70;;
35743;SDS011;21867;52.012;4.324;2022-11-20T14:54:25;14.83;;;10.60;;
35743;SDS011;21867;52.012;4.324;2022-11-20T14:56:53;17.37;;;13.40;;
35743;SDS011;21867;52.012;4.324;2022-11-20T14:59:22;20.17;;;14.60;;
35743;SDS011;21867;52.012;4.324;2022-11-20T15:01:55;20.03;;;16.50;;
35743;SDS011;21867;52.012;4.324;2022-11-20T15:04:23;16.23;;;12.40;;
35743;SDS011;21867;52.012;4.324;2022-11-20T15:06:52;22.33;;;14.93;;
35743;SDS011;21867;52.012;4.324;2022-11-20T15:09:20;20.33;;;16.27;;
35743;SDS011;21867;52.012;4.324;2022-11-20T15:12:02;20.00;;;14.97;;
35743;SDS011;21867;52.012;4.324;2022-11-20T15:14:45;19.57;;;15.17;;
35743;SDS011;21867;52.012;4.324;2022-11-20T15:17:15;20.07;;;14.37;;
35743;SDS011;21867;52.012;4.324;2022-11-20T15:19:42;18.23;;;13.83;;
35743;SDS011;21867;52.012;4.324;2022-11-20T15:22:10;21.87;;;16.37;;
35743;SDS011;21867;52.012;4.324;2022-11-20T15:24:39;25.07;;;18.23;;
35743;SDS011;21867;52.012;4.324;2022-11-20T15:27:07;11.83;;;8.03;;
35743;SDS011;21867;52.012;4.324;2022-11-20T15:32:19;13.70;;;11.97;;
35743;SDS011;21867;52.012;4.324;2022-11-20T15:34:46;14.23;;;11.13;;
35743;SDS011;21867;52.012;4.324;2022-11-20T15:37:13;19.13;;;15.00;;
35743;SDS011;21867;52.012;4.324;2022-11-20T15:39:45;17.95;;;16.00;;
35743;SDS011;21867;52.012;4.324;2022-11-20T15:45:03;10.07;;;8.10;;
35743;SDS011;21867;52.012;4.324;2022-11-20T15:47:32;12.33;;;9.17;;
35743;SDS011;21867;52.012;4.324;2022-11-20T15:50:00;20.80;;;10.13;;
35743;SDS011;21867;52.012;4.324;2022-11-20T15:52:27;14.60;;;10.70;;
35743;SDS011;21867;52.012;4.324;2022-11-20T15:55:07;24.40;;;13.23;;
35743;SDS011;21867;52.012;4.324;2022-11-20T15:57:35;13.90;;;11.23;;
35743;SDS011;21867;52.012;4.324;2022-11-20T16:00:02;14.07;;;8.87;;
35743;SDS011;21867;52.012;4.324;2022-11-20T16:02:37;14.67;;;11.57;;
35743;SDS011;21867;52.012;4.324;2022-11-20T16:05:05;14.93;;;11.87;;
35743;SDS011;21867;52.012;4.324;2022-11-20T16:07:37;15.23;;;11.37;;
35743;SDS011;21867;52.012;4.324;2022-11-20T16:10:04;17.70;;;12.67;;
35743;SDS011;21867;52.012;4.324;2022-11-20T16:12:31;13.83;;;11.27;;